Alfred, New York
Current Conditions -  °F | °C
As of 9:56 AM on Friday 31 Oct 2014 (Local Time) from KELZ Reporting Station
Overcast Overcast  
Wind Chill: 34°   Ceiling: 4700
Heat Index: 38°   Visibility: 10mi
Dew Point: 33°   Wind: 5mph
Humidity: 83%   Direction: 140°SE
Pressure: 29.95"   Gusts: NA
Location:  42.25°N, 77.79°W
Report Text: KELZ 311356Z AUTO 14004KT 10SM OVC047 03/01 A2995 RMK AO2 SLP157 T00330006
Loading
Personal Weather Stations






























Interactive Weather Map
Tropical Storm Tracking
New forecast layout! Learn more

10-Day Weather Forecast

Advertisements
Track Severe Weather on mobile